Flight Track Log - Related Links

Times and Time Zones

All times are in EDT time to prevent confusion due to time zone crossing. See the AIP5010 flight status page for this flight to view local times or setup timezone preferences in your user account.

Time Position Orientation Groundspeed Altitude Reporting Facility
EDT Latitude Longitude Course Direction KTS MPH feet Rate Location/Type
Fri 01:42:17 AM 47.4264 -111.3244 134° Southeast 167 192 8,500  Level Salt Lake Center
Fri 01:43:18 AM 47.3797 -111.2892 153° Southeast 179 206 10,900 2,331 Climbing Salt Lake Center
Fri 01:44:18 AM 47.3228 -111.2231 142° Southeast 207 238 13,200 1,785 Climbing Salt Lake Center
Fri 01:45:19 AM 47.2808 -111.1542 132° Southeast 219 252 14,500 1,426 Climbing Salt Lake Center
Fri 01:46:00 AM 47.2887 -111.0277 126° Southeast  Level Estimated
Fri 01:46:20 AM 47.2378 -111.0808 131° Southeast 229 264 16,100  Level Salt Lake Center
Fri 01:47:21 AM 47.1947 -111.0019 129° Southeast 241 277 17,000 496 Climbing Salt Lake Center
Fri 01:48:21 AM 47.1519 -110.9122 125° Southeast 258 297 17,100 -99 Climbing Salt Lake Center
Fri 01:49:22 AM 47.1036 -110.8203 128° Southeast 272 313 16,800  Descending Salt Lake Center
Fri 01:50:23 AM 47.0556 -110.7303 128° Southeast 278 320 17,100 99 Climbing Salt Lake Center
Fri 01:51:23 AM 47.0072 -110.6414 129° Southeast 278 320 17,000  Descending Salt Lake Center
Fri 01:52:24 AM 46.9556 -110.5558 131° Southeast 279 321 17,100 -50 Climbing Salt Lake Center
Fri 01:53:24 AM 46.8908 -110.4889 145° Southeast 280 322 16,900  Descending Salt Lake Center
Fri 01:54:25 AM 46.8456 -110.3936 125° Southeast 281 323 17,100 49 Climbing Salt Lake Center
Fri 01:55:26 AM 46.7989 -110.3011 126° Southeast 282 325 17,000 -50 Descending Salt Lake Center
Fri 01:56:26 AM 46.7481 -110.2131 130° Southeast 283 326 17,000  Level Salt Lake Center
Fri 01:57:27 AM 46.6953 -110.1150 128° Southeast 283 326 17,000  Level Salt Lake Center
Fri 01:58:28 AM 46.6444 -110.0222 129° Southeast 287 330 17,000  Level Salt Lake Center
Fri 01:59:29 AM 46.5922 -109.9328 130° Southeast 290 334 17,000 -49 Level Salt Lake Center
Fri 02:00:30 AM 46.5439 -109.8378 126° Southeast 290 334 16,900 -149 Descending Salt Lake Center
Fri 02:01:30 AM 46.4883 -109.7503 133° Southeast 293 337 16,700 -347 Descending Salt Lake Center
Fri 02:02:31 AM 46.4233 -109.6511 134° Southeast 302 348 16,200 -248 Descending Salt Lake Center
Fri 02:03:31 AM 46.3742 -109.5556 127° Southeast 301 346 16,200 -99 Level Salt Lake Center
Fri 02:04:32 AM 46.3233 -109.4619 128° Southeast 299 344 16,000 -50 Descending Salt Lake Center
Fri 02:05:32 AM 46.2697 -109.3619 128° Southeast 298 343 16,100 -99 Climbing Salt Lake Center
Fri 02:06:33 AM 46.2192 -109.2669 128° Southeast 297 342 15,800 -595 Descending Salt Lake Center
Fri 02:07:33 AM 46.1661 -109.1700 128° Southeast 311 358 14,900 -694 Descending Salt Lake Center
Fri 02:08:34 AM 46.1136 -109.0736 128° Southeast 311 358 14,400 -744 Descending Salt Lake Center
Fri 02:09:34 AM 46.0544 -108.9692 129° Southeast 311 358 13,400 -1,388 Descending Salt Lake Center
Fri 02:10:35 AM 45.9981 -108.8694 129° Southeast 321 369 11,600 -1,835 Descending Salt Lake Center
Fri 02:11:35 AM 45.9453 -108.7697 127° Southeast 321 369 9,700 -1,884 Descending Salt Lake Center
Fri 02:12:36 AM 45.8911 -108.6750 129° Southeast 316 364 7,800 -1,736 Descending Salt Lake Center
Fri 02:13:36 AM 45.8511 -108.5814 122° Southeast 276 318 6,200 -1,289 Descending Salt Lake Center
Fri 02:14:37 AM 45.8189 -108.4950 118° Southeast 243 280 5,200 -1,190 Descending Salt Lake Center
Fri 02:15:37 AM 45.7981 -108.5028 195° South 169 194 3,800 -1,400 Descending Salt Lake Center
Fri 02:17:00 AM 45.8000 -108.5333 306° West  Level FlightAware Approximate
Fri 02:24:00 AM 45.8077 -108.5429 306° West  Level Estimated

Login

Don't have an account? Register now (free) for customized features, flight alerts, and more!